Time;durP1;ratioP1;P1;durP2;ratioP2;P2;SDS_P1;SDS_P2;PMS_P1;PMS_P2;Temp;Humidity;BMP_temperature;BMP_pressure;BME280_temperature;BME280_humidity;BME280_pressure;Samples;Min_cycle;Max_cycle;Signal;HPM_P1;HPM_P2
2021/04/06 00:00:29;;;;;;;;;;;23.50;36.90;;;;;;1638909;71;760;-66
2021/04/06 00:02:30;;;;;;;;;;;23.50;36.90;;;;;;1611852;72;1937;-65
2021/04/06 00:04:33;;;;;;;;;;;23.50;37.00;;;;;;1625615;72;636;-65
2021/04/06 00:06:35;;;;;;;;;;;23.50;37.00;;;;;;1625218;72;782;-65
2021/04/06 00:08:37;;;;;;;;;;;23.50;37.10;;;;;;1624273;72;1173;-65
2021/04/06 00:10:43;;;;;;;;;;;23.50;37.00;;;;;;1624487;72;772;-65
2021/04/06 00:12:45;;;;;;;;;;;23.50;37.00;;;;;;1630328;72;750;-66
2021/04/06 00:14:47;;;;;;;;;;;23.50;37.00;;;;;;1621379;72;814;-65
2021/04/06 00:16:50;;;;;;;;;;;23.50;36.90;;;;;;1624716;72;737;-67
2021/04/06 00:18:51;;;;;;;;;;;23.50;36.80;;;;;;1628721;72;1140;-67
2021/04/06 00:20:53;;;;;;;;;;;23.50;36.80;;;;;;1628144;72;743;-67
2021/04/06 00:22:58;;;;;;;;;;;23.50;36.80;;;;;;1627556;72;1932;-68
2021/04/06 00:25:00;;;;;;;;;;;23.50;36.70;;;;;;1618570;72;791;-67
2021/04/06 00:27:04;;;;;;;;;;;23.50;36.60;;;;;;1625412;72;735;-68
2021/04/06 00:29:05;;;;;;;;;;;23.50;36.60;;;;;;1628051;72;1188;-68
2021/04/06 00:31:08;;;;;;;;;;;23.50;36.60;;;;;;1617744;72;756;-66
2021/04/06 00:33:17;;;;;;;;;;;23.50;36.50;;;;;;1624911;72;766;-67
2021/04/06 00:35:19;;;;;;;;;;;23.50;36.60;;;;;;1619865;72;900;-65
2021/04/06 00:37:21;;;;;;;;;;;23.50;36.50;;;;;;1629816;72;1064;-65
2021/04/06 00:39:30;;;;;;;;;;;23.50;36.50;;;;;;1623901;72;1151;-66
2021/04/06 00:41:31;;;;;;;;;;;23.50;36.60;;;;;;1626534;72;1937;-66
2021/04/06 00:43:34;;;;;;;;;;;23.50;36.80;;;;;;1627444;72;754;-65
2021/04/06 00:45:36;;;;;;;;;;;23.50;36.70;;;;;;1627906;72;787;-67
2021/04/06 00:47:38;;;;;;;;;;;23.60;36.70;;;;;;1624095;72;777;-65
2021/04/06 00:49:40;;;;;;;;;;;23.50;36.70;;;;;;1626854;72;1201;-65
2021/04/06 00:51:42;;;;;;;;;;;23.50;36.70;;;;;;1626039;72;748;-63
2021/04/06 00:53:57;;;;;;;;;;;23.50;36.80;;;;;;1628263;72;739;-65
2021/04/06 00:55:59;;;;;;;;;;;23.50;36.70;;;;;;1628018;72;767;-66
2021/04/06 00:58:01;;;;;;;;;;;23.50;36.90;;;;;;1626232;72;998;-66
2021/04/06 01:00:19;;;;;;;;;;;23.50;36.90;;;;;;1623124;72;982;-65
2021/04/06 01:02:21;;;;;;;;;;;23.50;36.90;;;;;;1623411;72;1934;-65
2021/04/06 01:04:23;;;;;;;;;;;23.50;36.80;;;;;;1649535;72;751;-62
2021/04/06 01:06:25;;;;;;;;;;;23.40;36.80;;;;;;1625710;72;728;-64
2021/04/06 01:08:27;;;;;;;;;;;23.40;37.00;;;;;;1626260;72;1192;-65
2021/04/06 01:10:29;;;;;;;;;;;23.40;36.90;;;;;;1625147;72;758;-64
2021/04/06 01:12:31;;;;;;;;;;;23.40;37.00;;;;;;1631056;72;730;-64
2021/04/06 01:14:40;;;;;;;;;;;23.40;37.10;;;;;;1624009;72;771;-65
2021/04/06 01:16:41;;;;;;;;;;;23.40;36.90;;;;;;1612074;72;760;-66
2021/04/06 01:18:44;;;;;;;;;;;23.50;37.10;;;;;;1627151;72;1156;-65
2021/04/06 01:20:46;;;;;;;;;;;23.50;37.10;;;;;;1626141;72;728;-65
2021/04/06 01:22:49;;;;;;;;;;;23.50;36.90;;;;;;1627271;72;1938;-65
2021/04/06 01:24:50;;;;;;;;;;;23.50;36.90;;;;;;1629299;72;650;-62
2021/04/06 01:26:52;;;;;;;;;;;23.50;36.80;;;;;;1638329;72;769;-65
2021/04/06 01:28:54;;;;;;;;;;;23.50;36.80;;;;;;1630925;72;1161;-65
2021/04/06 01:30:56;;;;;;;;;;;23.40;36.80;;;;;;1596308;73;1220;-64
2021/04/06 01:32:58;;;;;;;;;;;23.50;36.80;;;;;;1626419;72;764;-65
2021/04/06 01:35:00;;;;;;;;;;;23.50;36.80;;;;;;1628223;72;777;-64
2021/04/06 01:37:02;;;;;;;;;;;23.50;36.80;;;;;;1625742;72;735;-64
2021/04/06 01:39:04;;;;;;;;;;;23.50;36.80;;;;;;1627711;72;1159;-66
2021/04/06 01:41:06;;;;;;;;;;;23.40;36.70;;;;;;1622030;72;749;-65
2021/04/06 01:43:08;;;;;;;;;;;23.30;36.60;;;;;;1622654;72;1935;-67
2021/04/06 01:45:12;;;;;;;;;;;23.50;36.80;;;;;;1627863;72;719;-67
2021/04/06 01:47:16;;;;;;;;;;;23.40;36.60;;;;;;1599441;73;1097;-64
2021/04/06 01:49:18;;;;;;;;;;;23.50;36.80;;;;;;1626495;72;1669;-65
2021/04/06 01:51:20;;;;;;;;;;;23.40;36.80;;;;;;1624633;72;746;-65
2021/04/06 01:53:23;;;;;;;;;;;23.40;36.80;;;;;;1629746;72;678;-64
2021/04/06 01:55:31;;;;;;;;;;;23.50;36.90;;;;;;1622536;72;757;-66
2021/04/06 01:57:40;;;;;;;;;;;23.50;37.00;;;;;;1625387;72;768;-65
2021/04/06 01:59:40;;;;;;;;;;;23.40;36.90;;;;;;1625721;72;1580;-65
2021/04/06 02:01:42;;;;;;;;;;;23.40;37.00;;;;;;1627341;72;1964;-62
2021/04/06 02:03:51;;;;;;;;;;;23.50;37.20;;;;;;1628062;72;770;-64
2021/04/06 02:05:50;;;;;;;;;;;23.50;37.00;;;;;;1621747;72;1584;-64
2021/04/06 02:07:53;;;;;;;;;;;23.40;37.10;;;;;;1607968;73;764;-65
2021/04/06 02:09:55;;;;;;;;;;;23.50;37.30;;;;;;1596160;73;1176;-65
2021/04/06 02:11:57;;;;;;;;;;;23.40;37.10;;;;;;1624591;72;780;-65
2021/04/06 02:14:08;;;;;;;;;;;23.40;37.20;;;;;;1623845;72;731;-65
2021/04/06 02:16:10;;;;;;;;;;;23.40;37.00;;;;;;1624673;72;750;-65
2021/04/06 02:18:14;;;;;;;;;;;23.50;37.10;;;;;;1608113;72;1150;-65
2021/04/06 02:20:23;;;;;;;;;;;23.50;37.40;;;;;;1613455;73;1135;-62
2021/04/06 02:22:25;;;;;;;;;;;23.40;37.00;;;;;;1590381;73;1926;-65
2021/04/06 02:24:28;;;;;;;;;;;23.40;37.00;;;;;;1592570;73;788;-65
2021/04/06 02:26:30;;;;;;;;;;;23.30;37.10;;;;;;1605289;73;1119;-64
2021/04/06 02:28:32;;;;;;;;;;;23.30;37.30;;;;;;1597389;73;1175;-65
2021/04/06 02:30:34;;;;;;;;;;;23.40;37.20;;;;;;1581700;73;734;-65
2021/04/06 02:32:36;;;;;;;;;;;23.30;37.10;;;;;;1612304;73;800;-65
2021/04/06 02:34:38;;;;;;;;;;;23.40;37.30;;;;;;1631938;71;781;-65
2021/04/06 02:36:40;;;;;;;;;;;23.30;37.30;;;;;;1631705;71;755;-65
2021/04/06 02:38:42;;;;;;;;;;;23.30;37.10;;;;;;1637172;71;1155;-64
2021/04/06 02:40:44;;;;;;;;;;;23.30;37.30;;;;;;1628533;71;758;-65
2021/04/06 02:42:46;;;;;;;;;;;23.40;37.20;;;;;;1630914;71;1931;-65
2021/04/06 02:44:49;;;;;;;;;;;23.20;37.20;;;;;;1643648;71;753;-64
2021/04/06 02:46:52;;;;;;;;;;;23.30;37.30;;;;;;1632441;71;729;-66
2021/04/06 02:48:58;;;;;;;;;;;23.40;37.20;;;;;;1631514;71;1136;-66
2021/04/06 02:51:00;;;;;;;;;;;23.40;37.10;;;;;;1637772;71;707;-65
2021/04/06 02:53:03;;;;;;;;;;;23.40;37.10;;;;;;1636967;71;789;-65
2021/04/06 02:55:06;;;;;;;;;;;23.40;37.10;;;;;;1639801;71;1188;-65
2021/04/06 02:57:09;;;;;;;;;;;23.40;37.20;;;;;;1626433;71;747;-65
2021/04/06 02:59:12;;;;;;;;;;;23.40;37.10;;;;;;1623885;71;1603;-65
2021/04/06 03:01:15;;;;;;;;;;;23.30;37.30;;;;;;1629530;71;812;-65
2021/04/06 03:03:23;;;;;;;;;;;23.40;37.10;;;;;;1640510;71;1927;-64
2021/04/06 03:05:34;;;;;;;;;;;23.30;37.20;;;;;;1648259;71;745;-66
2021/04/06 03:07:38;;;;;;;;;;;23.40;37.20;;;;;;1635281;71;750;-65
2021/04/06 03:09:39;;;;;;;;;;;23.40;37.00;;;;;;1627038;71;1696;-65
2021/04/06 03:11:42;;;;;;;;;;;23.30;36.90;;;;;;1624824;71;739;-63
2021/04/06 03:13:44;;;;;;;;;;;23.30;36.80;;;;;;1627780;71;620;-65
2021/04/06 03:15:46;;;;;;;;;;;23.40;36.90;;;;;;1630217;71;742;-66
2021/04/06 03:17:52;;;;;;;;;;;23.40;37.10;;;;;;1642110;71;682;-67
2021/04/06 03:20:00;;;;;;;;;;;23.40;37.10;;;;;;1627437;71;1224;-66
2021/04/06 03:22:02;;;;;;;;;;;23.40;37.00;;;;;;1621195;71;1925;-67
2021/04/06 03:24:04;;;;;;;;;;;23.40;37.10;;;;;;1632992;71;735;-66
2021/04/06 03:26:07;;;;;;;;;;;23.40;37.10;;;;;;1627620;71;743;-65
2021/04/06 03:28:09;;;;;;;;;;;23.40;37.20;;;;;;1600092;72;1159;-64
2021/04/06 03:30:12;;;;;;;;;;;23.30;37.30;;;;;;1601232;73;767;-65
2021/04/06 03:32:13;;;;;;;;;;;23.30;37.10;;;;;;1604536;73;784;-65
2021/04/06 03:34:15;;;;;;;;;;;23.30;37.30;;;;;;1599124;73;770;-64
2021/04/06 03:36:22;;;;;;;;;;;23.30;37.00;;;;;;1608557;71;701;-65
2021/04/06 03:38:24;;;;;;;;;;;23.30;37.10;;;;;;1628366;71;1144;-66
2021/04/06 03:40:28;;;;;;;;;;;23.30;37.00;;;;;;1597902;73;807;-66
2021/04/06 03:42:30;;;;;;;;;;;23.30;37.00;;;;;;1627383;71;1939;-66
2021/04/06 03:44:32;;;;;;;;;;;23.30;37.20;;;;;;1626645;71;744;-67
2021/04/06 03:46:34;;;;;;;;;;;23.40;37.10;;;;;;1632383;71;755;-67
2021/04/06 03:48:36;;;;;;;;;;;23.30;37.20;;;;;;1631995;71;1163;-66
2021/04/06 03:50:39;;;;;;;;;;;23.30;37.30;;;;;;1633989;71;743;-67
2021/04/06 03:52:42;;;;;;;;;;;23.30;37.30;;;;;;1623139;71;765;-65
2021/04/06 03:54:46;;;;;;;;;;;23.40;37.40;;;;;;1621078;71;1045;-66
2021/04/06 03:56:48;;;;;;;;;;;23.40;37.30;;;;;;1632316;71;825;-66
2021/04/06 03:58:57;;;;;;;;;;;23.30;37.40;;;;;;1630599;71;218777;-60
2021/04/06 04:00:57;;;;;;;;;;;23.40;37.20;;;;;;1631515;71;1568;-59
2021/04/06 04:03:00;;;;;;;;;;;23.40;37.30;;;;;;1631785;71;1929;-59
2021/04/06 04:05:01;;;;;;;;;;;23.30;37.70;;;;;;1632852;71;749;-60
2021/04/06 04:07:03;;;;;;;;;;;23.30;37.80;;;;;;1631594;71;754;-59
2021/04/06 04:09:05;;;;;;;;;;;23.20;37.80;;;;;;1635915;71;1223;-61
2021/04/06 04:11:07;;;;;;;;;;;23.20;37.80;;;;;;1580028;74;756;-59
2021/04/06 04:13:09;;;;;;;;;;;23.20;37.80;;;;;;1575438;74;764;-58
2021/04/06 04:15:11;;;;;;;;;;;23.20;37.70;;;;;;1600824;72;776;-58
2021/04/06 04:17:13;;;;;;;;;;;23.20;37.80;;;;;;1575668;74;795;-59
2021/04/06 04:19:15;;;;;;;;;;;23.20;37.90;;;;;;1598760;73;1131;-61
2021/04/06 04:21:16;;;;;;;;;;;23.20;37.90;;;;;;1595470;73;681;-59
2021/04/06 04:23:18;;;;;;;;;;;23.20;38.00;;;;;;1591408;74;1927;-59
2021/04/06 04:25:20;;;;;;;;;;;23.20;37.90;;;;;;1605884;73;753;-61
2021/04/06 04:27:22;;;;;;;;;;;23.20;37.90;;;;;;1573243;74;767;-58
2021/04/06 04:29:24;;;;;;;;;;;23.20;37.90;;;;;;1607251;73;1159;-60
2021/04/06 04:31:26;;;;;;;;;;;23.20;37.70;;;;;;1571012;74;654;-59
2021/04/06 04:33:28;;;;;;;;;;;23.20;37.60;;;;;;1619025;72;813;-58
2021/04/06 04:35:30;;;;;;;;;;;23.20;37.60;;;;;;1612513;72;825;-60
2021/04/06 04:37:32;;;;;;;;;;;23.10;37.60;;;;;;1581680;74;749;-58
2021/04/06 04:39:34;;;;;;;;;;;23.10;37.70;;;;;;1601411;73;1150;-61
2021/04/06 04:41:35;;;;;;;;;;;23.10;37.40;;;;;;1595837;73;783;-61
2021/04/06 04:43:37;;;;;;;;;;;23.20;37.40;;;;;;1604344;73;1932;-60
2021/04/06 04:45:39;;;;;;;;;;;23.10;37.40;;;;;;1598333;74;745;-60
2021/04/06 04:47:41;;;;;;;;;;;23.10;37.60;;;;;;1605773;72;762;-59
2021/04/06 04:49:43;;;;;;;;;;;23.10;37.60;;;;;;1598093;72;1134;-61
2021/04/06 04:51:45;;;;;;;;;;;23.00;37.50;;;;;;1595234;73;738;-58
2021/04/06 04:53:47;;;;;;;;;;;23.10;37.90;;;;;;1599925;72;753;-62
2021/04/06 04:55:49;;;;;;;;;;;23.20;37.60;;;;;;1591329;73;795;-59
2021/04/06 04:57:51;;;;;;;;;;;23.10;37.80;;;;;;1604908;73;760;-62
2021/04/06 04:59:53;;;;;;;;;;;23.20;37.50;;;;;;1601485;73;1126;-61
2021/04/06 05:01:54;;;;;;;;;;;23.10;37.60;;;;;;1607569;73;735;-62
2021/04/06 05:03:56;;;;;;;;;;;23.10;37.70;;;;;;1599042;72;1937;-61
2021/04/06 05:05:58;;;;;;;;;;;23.10;37.80;;;;;;1586173;74;764;-58
2021/04/06 05:08:00;;;;;;;;;;;23.10;37.80;;;;;;1599592;73;763;-58
2021/04/06 05:10:02;;;;;;;;;;;23.00;37.60;;;;;;1602924;72;1257;-60
2021/04/06 05:12:04;;;;;;;;;;;23.00;37.90;;;;;;1603768;72;718;-60
2021/04/06 05:14:07;;;;;;;;;;;23.00;37.60;;;;;;1601151;74;741;-60
2021/04/06 05:16:09;;;;;;;;;;;23.00;37.70;;;;;;1589264;73;739;-59
2021/04/06 05:18:11;;;;;;;;;;;23.10;37.50;;;;;;1588787;74;1181;-57
2021/04/06 05:20:13;;;;;;;;;;;23.20;37.40;;;;;;1584436;72;784;-60
2021/04/06 05:22:14;;;;;;;;;;;23.10;37.70;;;;;;1592087;73;780;-59
2021/04/06 05:24:16;;;;;;;;;;;23.20;38.00;;;;;;1587012;73;1947;-59
2021/04/06 05:26:18;;;;;;;;;;;23.20;38.00;;;;;;1601958;72;796;-61
2021/04/06 05:28:20;;;;;;;;;;;23.10;37.90;;;;;;1587560;73;1165;-59
2021/04/06 05:30:22;;;;;;;;;;;23.10;37.90;;;;;;1591680;74;811;-60
2021/04/06 05:32:24;;;;;;;;;;;23.10;38.10;;;;;;1596654;73;711;-61
2021/04/06 05:34:26;;;;;;;;;;;23.10;38.10;;;;;;1590393;73;753;-59
2021/04/06 05:36:28;;;;;;;;;;;22.90;38.20;;;;;;1595679;74;748;-58
2021/04/06 05:38:29;;;;;;;;;;;22.90;39.10;;;;;;1601750;72;1152;-59
2021/04/06 05:40:31;;;;;;;;;;;23.50;40.70;;;;;;1601109;73;676;-59
2021/04/06 05:42:33;;;;;;;;;;;25.50;36.40;;;;;;1602263;74;695;-60
2021/04/06 05:44:35;;;;;;;;;;;26.50;33.10;;;;;;1594291;72;1940;-59
2021/04/06 05:46:37;;;;;;;;;;;26.50;32.10;;;;;;1603002;73;769;-59
2021/04/06 05:48:39;;;;;;;;;;;26.30;32.50;;;;;;1600712;73;1159;-57
2021/04/06 05:50:47;;;;;;;;;;;26.10;32.50;;;;;;1604144;73;753;-59
2021/04/06 05:52:49;;;;;;;;;;;25.90;31.80;;;;;;1597427;73;654;-59
2021/04/06 05:54:51;;;;;;;;;;;25.70;32.30;;;;;;1597054;74;775;-58
2021/04/06 05:56:53;;;;;;;;;;;25.60;32.30;;;;;;1604134;73;631;-56
2021/04/06 05:58:58;;;;;;;;;;;25.50;32.80;;;;;;1603988;73;1144;-57
2021/04/06 06:00:59;;;;;;;;;;;25.40;32.90;;;;;;1601019;74;1721;-59
2021/04/06 06:03:01;;;;;;;;;;;25.10;33.10;;;;;;1596747;74;2217;-57
2021/04/06 06:05:03;;;;;;;;;;;25.00;33.40;;;;;;1596694;73;943;-59
2021/04/06 06:07:05;;;;;;;;;;;24.80;33.50;;;;;;1604765;72;745;-57
2021/04/06 06:09:09;;;;;;;;;;;24.70;33.80;;;;;;1599012;74;1206;-59
2021/04/06 06:11:11;;;;;;;;;;;24.60;33.90;;;;;;1605598;73;915;-59
2021/04/06 06:13:20;;;;;;;;;;;24.50;34.30;;;;;;1603698;73;786;-59
2021/04/06 06:15:22;;;;;;;;;;;24.40;34.30;;;;;;1598851;73;757;-55
2021/04/06 06:17:24;;;;;;;;;;;24.30;34.60;;;;;;1605348;73;799;-60
2021/04/06 06:19:28;;;;;;;;;;;24.20;34.70;;;;;;1599741;72;1125;-59
2021/04/06 06:21:45;;;;;;;;;;;24.20;34.40;;;;;;1594835;74;1221;-59
2021/04/06 06:23:47;;;;;;;;;;;24.10;34.50;;;;;;1589255;72;1921;-59
2021/04/06 06:25:51;;;;;;;;;;;23.90;34.70;;;;;;1590035;72;759;-61
2021/04/06 06:27:53;;;;;;;;;;;23.90;34.80;;;;;;1581021;72;1442;-57
2021/04/06 06:29:54;;;;;;;;;;;23.90;35.00;;;;;;1604850;72;1097;-58
2021/04/06 06:31:58;;;;;;;;;;;23.80;35.00;;;;;;1605370;74;734;-60
2021/04/06 06:34:00;;;;;;;;;;;23.80;35.00;;;;;;1605617;74;751;-60
2021/04/06 06:36:03;;;;;;;;;;;23.70;35.00;;;;;;1602257;74;680;-58
2021/04/06 06:38:15;;;;;;;;;;;23.70;35.20;;;;;;1604072;72;752;-60
2021/04/06 06:40:17;;;;;;;;;;;23.60;35.20;;;;;;1600953;74;1667;-60
2021/04/06 06:42:20;;;;;;;;;;;23.60;35.20;;;;;;1562399;74;1106;-60
2021/04/06 06:44:21;;;;;;;;;;;23.60;35.30;;;;;;1589158;72;1930;-58
2021/04/06 06:46:31;;;;;;;;;;;23.50;35.30;;;;;;1566843;74;890;-60
2021/04/06 06:48:30;;;;;;;;;;;23.50;35.30;;;;;;1595147;73;1514;-57
2021/04/06 06:50:33;;;;;;;;;;;23.50;35.30;;;;;;1591874;72;799;-57
2021/04/06 06:52:35;;;;;;;;;;;23.60;35.20;;;;;;1587588;73;779;-58
2021/04/06 06:54:37;;;;;;;;;;;23.70;35.10;;;;;;1608029;73;761;-60
2021/04/06 06:56:43;;;;;;;;;;;23.70;34.90;;;;;;1592769;73;742;-58
2021/04/06 06:58:44;;;;;;;;;;;23.60;34.70;;;;;;1586943;73;1125;-58
2021/04/06 07:00:48;;;;;;;;;;;23.50;34.80;;;;;;1633676;72;763;-59
2021/04/06 07:02:50;;;;;;;;;;;23.50;34.80;;;;;;1631102;72;1106;-60
2021/04/06 07:04:53;;;;;;;;;;;23.50;34.80;;;;;;1636808;72;1931;-59
2021/04/06 07:06:56;;;;;;;;;;;23.50;35.00;;;;;;1626588;72;778;-59
2021/04/06 07:08:58;;;;;;;;;;;23.50;35.20;;;;;;1618146;71;1851;-59
2021/04/06 07:11:00;;;;;;;;;;;23.50;36.80;;;;;;1623066;71;750;-59
2021/04/06 07:13:03;;;;;;;;;;;23.40;36.80;;;;;;1634994;72;642;-60
2021/04/06 07:15:06;;;;;;;;;;;23.40;37.70;;;;;;1634016;72;749;-59
2021/04/06 07:17:08;;;;;;;;;;;23.40;38.90;;;;;;1630020;72;772;-57
2021/04/06 07:19:10;;;;;;;;;;;23.50;39.00;;;;;;1642980;71;1140;-57
2021/04/06 07:21:12;;;;;;;;;;;23.40;38.70;;;;;;1634160;72;823;-59
2021/04/06 07:23:15;;;;;;;;;;;23.50;38.80;;;;;;1626431;71;784;-59
2021/04/06 07:25:16;;;;;;;;;;;23.50;38.90;;;;;;1636430;72;1938;-59
2021/04/06 07:27:20;;;;;;;;;;;23.50;38.90;;;;;;1620462;72;884;-56
2021/04/06 07:29:22;;;;;;;;;;;23.50;38.80;;;;;;1637987;71;1416;-59
2021/04/06 07:31:24;;;;;;;;;;;23.50;38.70;;;;;;1634066;71;761;-59
2021/04/06 07:33:26;;;;;;;;;;;23.50;38.70;;;;;;1633526;71;717;-60
2021/04/06 07:35:28;;;;;;;;;;;23.40;38.60;;;;;;1628855;72;807;-61
2021/04/06 07:37:30;;;;;;;;;;;23.40;38.50;;;;;;1626931;72;786;-59
2021/04/06 07:39:32;;;;;;;;;;;23.40;38.40;;;;;;1644810;71;1152;-59
2021/04/06 07:41:34;;;;;;;;;;;23.40;38.40;;;;;;1635863;71;773;-59
2021/04/06 07:43:36;;;;;;;;;;;23.40;38.40;;;;;;1633147;71;1936;-59
2021/04/06 07:45:39;;;;;;;;;;;23.40;38.20;;;;;;1630855;71;742;-58
2021/04/06 07:47:42;;;;;;;;;;;23.40;38.40;;;;;;1633188;71;751;-57
2021/04/06 07:49:44;;;;;;;;;;;23.40;38.30;;;;;;1631381;71;1094;-57
2021/04/06 07:51:47;;;;;;;;;;;23.40;38.10;;;;;;1637125;71;684;-56
2021/04/06 07:54:08;;;;;;;;;;;23.40;38.20;;;;;;1637761;71;670;-59
2021/04/06 07:56:10;;;;;;;;;;;23.50;38.20;;;;;;1636249;71;711;-59
2021/04/06 07:58:14;;;;;;;;;;;23.50;38.10;;;;;;1638028;71;1076;-58
2021/04/06 08:00:17;;;;;;;;;;;23.40;37.90;;;;;;1627149;71;1507;-59
2021/04/06 08:02:23;;;;;;;;;;;23.40;37.80;;;;;;1638582;71;1576;-59
2021/04/06 08:04:25;;;;;;;;;;;23.40;37.70;;;;;;1636794;71;1928;-59
2021/04/06 08:06:28;;;;;;;;;;;23.40;37.70;;;;;;1636136;71;795;-58
2021/04/06 08:08:36;;;;;;;;;;;23.40;37.70;;;;;;1634119;71;1720;-60
2021/04/06 08:10:38;;;;;;;;;;;23.40;37.60;;;;;;1629036;71;744;-59
2021/04/06 08:12:41;;;;;;;;;;;23.40;37.60;;;;;;1635171;71;807;-59
2021/04/06 08:14:44;;;;;;;;;;;23.40;37.60;;;;;;1639601;71;783;-57
2021/04/06 08:16:46;;;;;;;;;;;23.40;37.60;;;;;;1644351;71;807;-59
2021/04/06 08:18:54;;;;;;;;;;;23.40;37.70;;;;;;1630739;71;1159;-59
2021/04/06 08:20:58;;;;;;;;;;;23.30;37.60;;;;;;1640608;71;685;-59
2021/04/06 08:23:09;;;;;;;;;;;23.30;37.50;;;;;;1633434;72;1093;-57
2021/04/06 08:25:22;;;;;;;;;;;23.40;37.60;;;;;;1638520;71;1943;-60
2021/04/06 08:27:33;;;;;;;;;;;23.30;37.50;;;;;;1636825;71;742;-59
2021/04/06 08:29:35;;;;;;;;;;;23.40;37.50;;;;;;1630684;71;1133;-61
2021/04/06 08:31:37;;;;;;;;;;;23.40;37.40;;;;;;1635429;71;763;-61
2021/04/06 08:33:39;;;;;;;;;;;23.40;37.60;;;;;;1636510;71;751;-59
2021/04/06 08:35:55;;;;;;;;;;;23.40;37.50;;;;;;1645660;71;759;-60
2021/04/06 08:37:57;;;;;;;;;;;23.50;37.60;;;;;;1642171;71;678;-60
2021/04/06 08:39:59;;;;;;;;;;;23.50;37.60;;;;;;1640276;71;1094;-59
2021/04/06 08:42:01;;;;;;;;;;;23.50;37.50;;;;;;1627629;71;745;-59
2021/04/06 08:44:05;;;;;;;;;;;23.50;37.40;;;;;;1637961;71;1928;-59
2021/04/06 08:46:11;;;;;;;;;;;23.60;37.30;;;;;;1636827;71;878;-60
2021/04/06 08:48:15;;;;;;;;;;;23.70;37.10;;;;;;1640529;71;1156;-60
2021/04/06 08:50:21;;;;;;;;;;;23.80;36.90;;;;;;1642229;71;760;-59
2021/04/06 08:52:24;;;;;;;;;;;23.90;36.80;;;;;;1635356;71;1127;-58
2021/04/06 08:54:27;;;;;;;;;;;23.80;36.60;;;;;;1607759;72;748;-59
2021/04/06 08:56:30;;;;;;;;;;;23.90;36.50;;;;;;1640810;71;1075;-57
2021/04/06 08:58:32;;;;;;;;;;;23.90;36.40;;;;;;1637706;71;1159;-60
2021/04/06 09:00:34;;;;;;;;;;;23.90;36.40;;;;;;1640462;71;747;-58
2021/04/06 09:02:36;;;;;;;;;;;24.00;36.20;;;;;;1627083;71;773;-57
2021/04/06 09:04:38;;;;;;;;;;;24.40;36.40;;;;;;1639102;71;1938;-60
2021/04/06 09:06:40;;;;;;;;;;;24.10;36.20;;;;;;1630811;71;745;-57
2021/04/06 09:08:50;;;;;;;;;;;24.20;36.10;;;;;;1643371;71;1207;-59
2021/04/06 09:10:52;;;;;;;;;;;24.20;36.00;;;;;;1633644;71;709;-61
2021/04/06 09:12:54;;;;;;;;;;;24.20;36.00;;;;;;1638118;71;696;-60
2021/04/06 09:14:56;;;;;;;;;;;24.20;35.90;;;;;;1634223;71;692;-60
2021/04/06 09:16:58;;;;;;;;;;;24.20;35.90;;;;;;1638056;71;761;-57
2021/04/06 09:19:00;;;;;;;;;;;24.20;35.70;;;;;;1628062;71;1173;-59
2021/04/06 09:21:06;;;;;;;;;;;24.30;35.90;;;;;;1629675;71;799;-60
2021/04/06 09:23:07;;;;;;;;;;;24.30;35.80;;;;;;1631956;71;1570;-59
2021/04/06 09:25:19;;;;;;;;;;;24.60;35.80;;;;;;1634773;71;1938;-59
2021/04/06 09:27:21;;;;;;;;;;;24.30;35.60;;;;;;1632600;71;629;-56
2021/04/06 09:29:24;;;;;;;;;;;24.30;35.50;;;;;;1646231;71;1146;-57
2021/04/06 09:31:26;;;;;;;;;;;24.30;35.50;;;;;;1640491;71;643;-58
2021/04/06 09:33:28;;;;;;;;;;;24.20;35.40;;;;;;1639103;71;783;-57
2021/04/06 09:35:30;;;;;;;;;;;24.20;35.50;;;;;;1646713;71;803;-59
2021/04/06 09:37:32;;;;;;;;;;;24.20;35.40;;;;;;1645272;71;803;-58
2021/04/06 09:39:34;;;;;;;;;;;24.20;35.40;;;;;;1644305;71;1123;-59
2021/04/06 09:41:38;;;;;;;;;;;24.20;35.20;;;;;;1647797;71;785;-56
2021/04/06 09:43:39;;;;;;;;;;;24.20;35.20;;;;;;1642165;71;735;-59
2021/04/06 09:45:41;;;;;;;;;;;24.10;35.20;;;;;;1645944;71;1934;-59
2021/04/06 09:47:43;;;;;;;;;;;24.10;35.20;;;;;;1647285;71;796;-57
2021/04/06 09:49:46;;;;;;;;;;;24.10;35.20;;;;;;1649014;71;1124;-60
2021/04/06 09:51:49;;;;;;;;;;;24.10;35.20;;;;;;1644701;71;812;-58
2021/04/06 09:53:51;;;;;;;;;;;24.00;35.10;;;;;;1645533;71;736;-56
2021/04/06 09:55:54;;;;;;;;;;;24.10;35.30;;;;;;1648183;71;710;-55
2021/04/06 09:57:58;;;;;;;;;;;24.00;35.20;;;;;;1646587;71;633;-58
2021/04/06 10:00:00;;;;;;;;;;;24.00;35.20;;;;;;1613352;70;3120;-60
2021/04/06 10:02:02;;;;;;;;;;;24.00;35.30;;;;;;1584540;73;830;-60
2021/04/06 10:04:04;;;;;;;;;;;24.00;35.30;;;;;;1586891;73;709;-57
2021/04/06 10:06:07;;;;;;;;;;;24.10;35.30;;;;;;1588362;73;1946;-58
2021/04/06 10:08:08;;;;;;;;;;;24.00;35.20;;;;;;1586812;73;1277;-58
2021/04/06 10:10:12;;;;;;;;;;;24.10;35.30;;;;;;1595954;73;805;-58
2021/04/06 10:12:14;;;;;;;;;;;24.10;35.20;;;;;;1589751;73;1785;-57
2021/04/06 10:14:16;;;;;;;;;;;24.10;35.20;;;;;;1597725;73;802;-60
2021/04/06 10:16:19;;;;;;;;;;;24.20;35.30;;;;;;1596436;73;819;-59
2021/04/06 10:18:21;;;;;;;;;;;24.10;35.20;;;;;;1570018;74;1173;-59
2021/04/06 10:20:24;;;;;;;;;;;24.20;35.20;;;;;;1592728;73;770;-59
2021/04/06 10:22:26;;;;;;;;;;;24.10;35.20;;;;;;1605438;73;672;-57
2021/04/06 10:24:28;;;;;;;;;;;24.00;35.20;;;;;;1595236;73;812;-57
2021/04/06 10:26:30;;;;;;;;;;;24.00;35.10;;;;;;1595421;73;1933;-59
2021/04/06 10:28:32;;;;;;;;;;;24.10;35.20;;;;;;1597352;73;1181;-60
2021/04/06 10:30:41;;;;;;;;;;;24.00;35.10;;;;;;1599369;73;802;-59
2021/04/06 10:32:45;;;;;;;;;;;24.00;35.10;;;;;;1593144;73;793;-59
2021/04/06 10:34:54;;;;;;;;;;;23.90;35.20;;;;;;1597581;73;1014;-60
2021/04/06 10:37:00;;;;;;;;;;;23.90;35.30;;;;;;1598079;73;1566;-58
2021/04/06 10:39:02;;;;;;;;;;;23.80;35.20;;;;;;1609460;73;1191;-60
2021/04/06 10:41:08;;;;;;;;;;;23.90;35.40;;;;;;1598346;73;780;-59
2021/04/06 10:43:11;;;;;;;;;;;23.90;35.40;;;;;;1595686;73;731;-59
2021/04/06 10:45:13;;;;;;;;;;;23.80;35.30;;;;;;1596283;73;1932;-59
2021/04/06 10:47:22;;;;;;;;;;;23.80;35.30;;;;;;1598150;72;815;-60
2021/04/06 10:49:24;;;;;;;;;;;23.80;35.40;;;;;;1602961;73;1188;-58
2021/04/06 10:51:26;;;;;;;;;;;23.70;35.40;;;;;;1593056;73;675;-60
2021/04/06 10:53:32;;;;;;;;;;;23.80;35.40;;;;;;1598527;73;785;-60
2021/04/06 10:55:35;;;;;;;;;;;23.80;35.30;;;;;;1592719;73;1170;-58
2021/04/06 10:57:38;;;;;;;;;;;23.80;35.30;;;;;;1589642;73;809;-56
2021/04/06 10:59:41;;;;;;;;;;;23.80;35.20;;;;;;1590271;73;1195;-59
2021/04/06 11:01:48;;;;;;;;;;;23.80;35.50;;;;;;1587395;73;688;-56
2021/04/06 11:03:50;;;;;;;;;;;23.70;35.50;;;;;;1579561;73;1126;-58
2021/04/06 11:05:52;;;;;;;;;;;23.70;35.50;;;;;;1576498;73;1950;-58
2021/04/06 11:07:54;;;;;;;;;;;23.70;35.60;;;;;;1580504;73;677;-59
2021/04/06 11:09:58;;;;;;;;;;;23.70;35.70;;;;;;1583386;73;1200;-57
2021/04/06 11:12:00;;;;;;;;;;;23.60;35.50;;;;;;1590341;73;1718;-58
2021/04/06 11:14:02;;;;;;;;;;;23.60;35.70;;;;;;1582322;73;751;-59
2021/04/06 11:16:04;;;;;;;;;;;23.60;35.80;;;;;;1580304;73;760;-56
2021/04/06 11:18:09;;;;;;;;;;;23.70;36.10;;;;;;1574128;73;772;-59
2021/04/06 11:20:11;;;;;;;;;;;23.80;36.00;;;;;;1575956;73;760;-58
2021/04/06 11:22:14;;;;;;;;;;;23.80;36.10;;;;;;1579045;73;808;-59
2021/04/06 11:24:16;;;;;;;;;;;23.70;36.20;;;;;;1575145;73;748;-58
2021/04/06 11:26:18;;;;;;;;;;;23.60;36.10;;;;;;1577710;73;1940;-58
2021/04/06 11:28:20;;;;;;;;;;;23.60;36.10;;;;;;1575911;73;1191;-60
2021/04/06 11:30:22;;;;;;;;;;;23.60;36.10;;;;;;1590182;73;678;-59
2021/04/06 11:32:24;;;;;;;;;;;23.60;36.20;;;;;;1591413;73;676;-58
2021/04/06 11:34:26;;;;;;;;;;;23.60;36.20;;;;;;1583994;73;736;-56
2021/04/06 11:36:29;;;;;;;;;;;23.70;36.30;;;;;;1583737;73;749;-57
2021/04/06 11:38:31;;;;;;;;;;;23.60;36.30;;;;;;1590139;73;1194;-58
2021/04/06 11:40:33;;;;;;;;;;;23.50;36.40;;;;;;1585075;73;768;-57
2021/04/06 11:42:35;;;;;;;;;;;23.50;36.50;;;;;;1577546;73;801;-58
2021/04/06 11:44:37;;;;;;;;;;;23.50;36.50;;;;;;1580044;73;701;-58
2021/04/06 11:46:39;;;;;;;;;;;23.50;36.90;;;;;;1584434;73;1939;-58
2021/04/06 11:48:40;;;;;;;;;;;23.50;37.10;;;;;;1559671;74;1197;-58
2021/04/06 11:50:42;;;;;;;;;;;23.50;37.10;;;;;;1584193;73;814;-60
2021/04/06 11:52:44;;;;;;;;;;;23.60;37.10;;;;;;1580659;73;753;-59
2021/04/06 11:54:46;;;;;;;;;;;23.50;37.20;;;;;;1576479;73;751;-60
2021/04/06 11:56:48;;;;;;;;;;;23.60;37.20;;;;;;1590515;73;793;-59
2021/04/06 11:58:50;;;;;;;;;;;23.60;37.20;;;;;;1584990;73;1169;-60
2021/04/06 12:00:52;;;;;;;;;;;23.50;36.90;;;;;;1579440;73;814;-59
2021/04/06 12:02:54;;;;;;;;;;;23.50;37.40;;;;;;1585949;73;805;-60
2021/04/06 12:04:55;;;;;;;;;;;23.50;37.30;;;;;;1591971;73;718;-62
2021/04/06 12:06:57;;;;;;;;;;;23.50;37.30;;;;;;1595920;73;1945;-60
2021/04/06 12:08:59;;;;;;;;;;;23.60;37.60;;;;;;1592718;73;1246;-59
2021/04/06 12:11:02;;;;;;;;;;;23.50;37.30;;;;;;1597397;73;803;-59
2021/04/06 12:13:04;;;;;;;;;;;23.50;37.00;;;;;;1597311;73;762;-60